Data for 07/26/2014

Time Sea-Level Adjusted Pressure Absolute Pressure Temperature Relative Humidity Dew Point   
(mb) (inHg) (mb) (inHg) (C) (F) (%) (C) (F)
00:05 1022 30.18 851 25.13 12.8 55.1 45 1.3 34.3
00:10 1022 30.18 851 25.13 12.9 55.1 45 1.2 34.2
00:15 1022 30.18 851 25.13 12.9 55.2 45 1.3 34.3
00:20 1022 30.18 851 25.13 12.8 55.1 45 1.2 34.2
00:25 1022 30.18 851 25.13 12.8 55 45 1.2 34.2
00:30 1022 30.18 851 25.13 12.7 54.9 45 1.2 34.1
00:35 1022 30.18 851 25.13 12.7 54.8 45 1.1 34
00:40 1022 30.18 851 25.13 12.6 54.6 45 1.2 34.1
00:45 1022 30.18 851 25.13 12.5 54.6 46 1.4 34.6
00:50 1022 30.18 851 25.13 12.5 54.4 47 1.5 34.8
00:55 1022 30.18 851 25.13 12.1 53.8 48 1.4 34.5
01:00 1022 30.18 851 25.13 11.9 53.5 48 1.4 34.5
01:05 1022 30.18 851 25.13 12.1 53.7 48 1.4 34.5
01:10 1022 30.18 851 25.13 12.1 53.9 47 1.3 34.3
01:15 1022 30.18 851 25.13 12 53.5 48 1.5 34.6
01:20 1022 30.18 851 25.13 11.8 53.3 49 1.5 34.7
01:25 1022 30.18 851 25.13 11.8 53.2 49 1.4 34.4
01:30 1022 30.18 851 25.13 11.7 53 50 1.8 35.2
01:35 1022 30.18 851 25.13 11.3 52.4 52 1.8 35.2
01:40 1022 30.18 851 25.13 11.1 52 53 2 35.6
01:45 1022 30.18 851 25.13 11 51.8 52 1.7 35
01:50 1022 30.18 851 25.13 11.1 52 51 1.4 34.5
01:55 1022 30.18 851 25.13 11.3 52.3 51 1.5 34.8
02:00 1022 30.18 851 25.13 11.2 52.1 52 1.7 35
02:05 1022 30.18 851 25.13 11.1 51.9 50 1.2 34.2
02:10 1022 30.18 851 25.13 11 51.9 52 1.7 35
02:15 1022 30.18 851 25.13 10.6 51.1 54 1.7 35.1
02:20 1022 30.18 851 25.13 10.5 50.8 54 1.5 34.7
02:25 1022 30.18 851 25.13 10.5 51 53 1.3 34.4
02:30 1022 30.18 851 25.13 10.7 51.2 51 1 33.7
02:35 1022 30.18 851 25.13 10.9 51.6 51 1.3 34.4
02:40 1022 30.18 851 25.13 11.1 51.9 51 1.3 34.3
02:45 1022 30.18 851 25.13 11.1 52 50 1 33.8
02:50 1022 30.18 851 25.13 11 51.9 50 1 33.9
02:55 1022 30.18 851 25.13 10.7 51.3 53 1.6 34.9
03:00 1022 30.18 851 25.13 10.2 50.4 54 1.4 34.4
03:05 1022 30.18 851 25.13 10.2 50.4 54 1.4 34.5
03:10 1022 30.18 852 25.16 10.1 50.1 55 1.4 34.6
03:15 1022 30.18 852 25.16 10 50 55 1.3 34.3
03:20 1022 30.18 852 25.16 10 50 54 1.2 34.1
03:25 1023 30.21 852 25.16 10.1 50.2 53 1 33.8
03:30 1023 30.21 852 25.16 10.5 50.8 50 0.6 33.1
03:35 1023 30.21 852 25.16 10.7 51.2 50 0.8 33.5
03:40 1023 30.21 852 25.16 10.8 51.4 49 0.5 32.9
03:45 1023 30.21 852 25.16 10.9 51.7 50 0.9 33.7
03:50 1023 30.21 852 25.16 10.6 51.2 52 1.2 34.1
03:55 1023 30.21 852 25.16 10.3 50.6 53 1.2 34.1
04:00 1023 30.21 852 25.16 10.2 50.3 53 1.1 33.9
04:05 1023 30.21 852 25.16 10.2 50.4 52 0.8 33.4
04:10 1023 30.21 852 25.16 10.4 50.7 51 0.9 33.5
04:15 1023 30.21 852 25.16 10.3 50.5 52 1 33.8
04:20 1023 30.21 852 25.16 10.2 50.3 53 1 33.8
04:25 1023 30.21 852 25.16 10.1 50.1 53 0.9 33.6
04:30 1023 30.21 852 25.16 10.1 50.1 53 0.9 33.5
04:35 1023 30.21 852 25.16 10.1 50.2 53 0.9 33.6
04:40 1023 30.21 852 25.16 10 50 54 1.2 34.1
04:45 1023 30.21 852 25.16 9.7 49.4 56 1.4 34.6
04:50 1023 30.21 853 25.19 9.3 48.7 58 1.5 34.7
04:55 1023 30.21 853 25.19 9.1 48.4 58 1.2 34.2
05:00 1023 30.21 853 25.19 9.1 48.3 58 1.4 34.5
05:05 1023 30.21 853 25.19 8.9 48 60 1.6 34.9
05:10 1023 30.21 853 25.19 8.5 47.3 62 1.7 35
05:15 1024 30.24 853 25.19 8.4 47.1 61 1.5 34.6
05:20 1024 30.24 853 25.19 8.5 47.3 61 1.4 34.6
05:25 1024 30.24 853 25.19 8.7 47.6 60 1.4 34.5
05:30 1024 30.24 853 25.19 8.8 47.8 60 1.4 34.5
05:35 1024 30.24 853 25.19 9 48.1 58 1.3 34.3
05:40 1024 30.24 853 25.19 9.2 48.5 58 1.3 34.4
05:45 1024 30.24 853 25.19 9.4 48.9 56 1 33.8
05:50 1024 30.24 853 25.19 9.9 49.8 54 1 33.9
05:55 1024 30.24 853 25.19 10.2 50.3 54 1.3 34.3
06:00 1024 30.24 853 25.19 10.1 50.2 54 1.3 34.3
06:05 1024 30.24 853 25.19 10.2 50.4 53 1.1 34
06:10 1024 30.24 853 25.19 10.6 51.1 52 1.3 34.4
06:15 1024 30.24 853 25.19 10.9 51.5 52 1.3 34.4
06:20 1024 30.24 853 25.19 11.2 52.1 51 1.6 34.9
06:25 1024 30.24 853 25.19 11.7 53 50 1.7 35.1
06:30 1024 30.24 853 25.19 12.1 53.7 49 1.6 34.9
06:35 1024 30.24 853 25.19 12.4 54.3 47 1.4 34.5
06:40 1024 30.24 853 25.19 12.8 55 46 1.5 34.6
06:45 1024 30.24 854 25.22 13.1 55.6 46 1.8 35.2
06:50 1024 30.24 854 25.22 13.6 56.5 45 1.9 35.5
06:55 1024 30.24 854 25.22 13.7 56.6 44 1.9 35.4
07:00 1024 30.24 854 25.22 14.1 57.3 44 2.1 35.8
07:05 1024 30.24 854 25.22 14.7 58.5 41 1.7 35
07:10 1024 30.24 854 25.22 15.6 60 39 1.9 35.4
07:15 1024 30.24 854 25.22 15.7 60.2 40 2.3 36.2
07:20 1024 30.24 854 25.22 15.7 60.2 39 1.9 35.5
07:25 1025 30.27 854 25.22 15.8 60.4 39 1.9 35.5
07:30 1025 30.27 854 25.22 16 60.9 39 2.2 36
07:35 1025 30.27 854 25.22 16.3 61.3 38 2.1 35.8
07:40 1025 30.27 854 25.22 16.2 61.1 40 2.6 36.8
07:45 1025 30.27 854 25.22 16.1 61.1 39 2.4 36.2
07:50 1025 30.27 854 25.22 16.5 61.7 38 2.3 36.2
07:55 1025 30.27 854 25.22 17 62.7 38 2.7 36.8
08:00 1025 30.27 854 25.22 17.2 62.9 38 2.9 37.2
08:05 1025 30.27 854 25.22 17.3 63.1 36 2.1 35.8
08:10 1025 30.27 854 25.22 17.7 63.9 36 2.6 36.6
08:15 1025 30.27 854 25.22 18.5 65.2 34 2.6 36.8
08:20 1025 30.27 854 25.22 17.9 64.2 36 2.6 36.6
08:25 1025 30.27 854 25.22 17.9 64.3 34 1.9 35.4
08:30 1025 30.27 854 25.22 18.5 65.4 32 1.9 35.4
08:35 1025 30.27 854 25.22 19.5 67 30 1.6 34.9
08:40 1025 30.27 854 25.22 19.3 66.7 31 1.9 35.3
08:45 1025 30.27 854 25.22 18.9 66 31 1.5 34.8
08:50 1025 30.27 854 25.22 19.3 66.7 31 2.1 35.7
08:55 1025 30.27 854 25.22 19 66.3 31 1.8 35.2
09:00 1025 30.27 854 25.22 19.8 67.7 29 1.2 34.2
09:05 1025 30.27 854 25.22 20.5 68.9 27 1.3 34.3
09:10 1025 30.27 854 25.22 20.2 68.3 28 1.5 34.6
09:15 1025 30.27 854 25.22 20.2 68.4 27 0.9 33.6
09:20 1025 30.27 854 25.22 20.3 68.5 27 0.9 33.6
09:25 1025 30.27 854 25.22 20.6 69 27 0.9 33.6
09:30 1025 30.27 854 25.22 20.5 68.9 26 0.8 33.4
09:35 1025 30.27 854 25.22 21 69.8 26 0.8 33.4
09:40 1025 30.27 854 25.22 21.1 70 26 1.2 34.1
09:45 1025 30.27 854 25.22 21.4 70.6 26 1.2 34.2
09:50 1025 30.27 854 25.22 21.5 70.6 26 1.3 34.4
09:55 1025 30.27 854 25.22 21.5 70.7 25 1 33.8
10:00 1025 30.27 854 25.22 21.7 71.1 25 0.8 33.4
10:05 1025 30.27 854 25.22 21.5 70.8 25 1.1 34
10:10 1025 30.27 854 25.22 21.8 71.3 25 1 33.9
10:15 1025 30.27 854 25.22 22.7 72.9 22 0.4 32.8
10:20 1025 30.27 854 25.22 22.7 72.9 23 0.7 33.3
10:25 1025 30.27 854 25.22 22.7 72.8 23 0.6 33.1
10:30 1025 30.27 854 25.22 22.4 72.4 24 1.4 34.4
10:35 1025 30.27 854 25.22 21.5 70.8 24 0.5 32.9
10:40 1025 30.27 854 25.22 21.2 70.1 23 -0.6 30.9
10:45 1025 30.27 854 25.22 21.4 70.5 23 -0.2 31.6
10:50 1025 30.27 854 25.22 22.1 71.8 24 0.5 32.9
10:55 1025 30.27 854 25.22 22.3 72.1 24 1.2 34.1
11:00 1025 30.27 854 25.22 22.4 72.2 23 0.6 33.1
11:05 1025 30.27 854 25.22 22.2 71.9 21 -1.2 29.9
11:10 1025 30.27 854 25.22 22.4 72.3 23 0.3 32.5
11:15 1025 30.27 854 25.22 22.4 72.4 20 -1.4 29.5
11:20 1025 30.27 854 25.22 23.3 73.9 19 -1.1 30.1
11:25 1025 30.27 854 25.22 22.5 72.4 20 -1.3 29.7
11:30 1025 30.27 854 25.22 22.9 73.2 19 -2 28.4
11:35 1025 30.27 854 25.22 23.3 73.9 20 -1 30.2
11:40 1025 30.27 854 25.22 23.9 75 19 -1.1 29.9
11:45 1025 30.27 854 25.22 24.1 75.3 20 -0 32
11:50 1025 30.27 854 25.22 22.9 73.2 21 -0.5 31
11:55 1025 30.27 854 25.22 23.4 74.2 20 -0.3 31.5
12:00 1025 30.27 854 25.22 23.1 73.6 21 -0.3 31.4
12:05 1025 30.27 854 25.22 23.4 74.2 21 0.1 32.2
12:10 1024 30.24 854 25.22 23.2 73.7 21 0 32.1
12:15 1024 30.24 854 25.22 23.6 74.5 19 -0.9 30.5
12:20 1024 30.24 854 25.22 24.4 76 18 -1.1 30.1
12:25 1024 30.24 854 25.22 24.5 76.1 18 -1.3 29.6
12:30 1024 30.24 854 25.22 24.9 76.7 18 -0.9 30.4
12:35 1024 30.24 854 25.22 24.7 76.4 18 -1.1 30.1
12:40 1024 30.24 854 25.22 24.8 76.7 18 -1.1 30
12:45 1024 30.24 853 25.19 25.2 77.3 18 -0.7 30.7
12:50 1024 30.24 853 25.19 25.1 77.1 17 -1.2 29.9
12:55 1024 30.24 853 25.19 24.4 76 18 -1.5 29.2
13:00 1024 30.24 853 25.19 23.6 74.4 19 -1.5 29.3
13:05 1024 30.24 853 25.19 24.2 75.5 17 -2.1 28.1
13:10 1024 30.24 853 25.19 24.8 76.7 18 -1.1 29.9
13:15 1024 30.24 853 25.19 25.4 77.7 17 -1.4 29.4
13:20 1024 30.24 853 25.19 25 77.1 18 -0.4 31.3
13:25 1024 30.24 853 25.19 24.9 76.8 18 -1.1 30
13:30 1024 30.24 853 25.19 24.7 76.5 18 -0.7 30.8
13:35 1024 30.24 853 25.19 24.9 76.7 18 -0.7 30.8
13:40 1024 30.24 853 25.19 24.1 75.5 18 -1.5 29.3
13:45 1024 30.24 853 25.19 24.2 75.6 18 -1.6 29.2
13:50 1024 30.24 853 25.19 24.5 76.2 18 -1.4 29.4
13:55 1024 30.24 853 25.19 24.7 76.4 18 -0.8 30.6
14:00 1024 30.24 853 25.19 24.7 76.5 17 -1.5 29.2
14:05 1024 30.24 853 25.19 25.2 77.4 16 -1.9 28.5
14:10 1024 30.24 853 25.19 25.7 78.2 15 -2.4 27.7
14:15 1024 30.24 853 25.19 25.1 77.2 15 -2.7 27.1
14:20 1024 30.24 853 25.19 25.4 77.7 15 -2.6 27.3
14:25 1024 30.24 853 25.19 26 78.8 15 -1.9 28.5
14:30 1024 30.24 853 25.19 26 78.7 15 -2.1 28.3
14:35 1024 30.24 853 25.19 26.8 80.3 14 -2.4 27.8
14:40 1024 30.24 853 25.19 27.2 81 14 -1.9 28.6
14:45 1024 30.24 853 25.19 27.1 80.7 15 -1.4 29.4
14:50 1024 30.24 853 25.19 26.8 80.3 19 1.7 35.1
14:55 1024 30.24 853 25.19 26.9 80.5 14 -2.2 28.1
15:00 1024 30.24 853 25.19 27.2 81 15 -1.6 29.1
15:05 1024 30.24 853 25.19 27 80.6 15 -1.8 28.7
15:10 1024 30.24 853 25.19 27.2 81 14 -2 28.4
15:15 1024 30.24 853 25.19 27 80.5 14 -2.2 28.1
15:20 1024 30.24 853 25.19 26.8 80.2 14 -2.3 27.9
15:25 1024 30.24 853 25.19 26.7 80 14 -2.7 27.1
15:30 1023 30.21 853 25.19 27 80.6 13 -3 26.5
15:35 1023 30.21 853 25.19 27.3 81.1 13 -2.8 26.9
15:40 1023 30.21 853 25.19 27 80.6 14 -2.9 26.7
15:45 1023 30.21 853 25.19 27.3 81.2 13 -3 26.6
15:50 1023 30.21 853 25.19 27.2 81 13 -3.7 25.3
15:55 1023 30.21 853 25.19 27.3 81.1 13 -3.1 26.4
16:00 1023 30.21 853 25.19 26.9 80.4 13 -3.5 25.7
16:05 1023 30.21 853 25.19 27.6 81.7 12 -3.6 25.6
16:10 1023 30.21 853 25.19 27.3 81.2 13 -2.8 27
16:15 1023 30.21 853 25.19 27.8 82 13 -3.3 26
16:20 1023 30.21 853 25.19 26.9 80.3 13 -3.3 26
16:25 1023 30.21 853 25.19 27.8 82 12 -3.4 25.8
16:30 1023 30.21 853 25.19 27.8 82 12 -3.8 25.2
16:35 1023 30.21 853 25.19 26.6 79.8 13 -3.9 25.1
16:40 1023 30.21 853 25.19 26.3 79.3 14 -3.3 26.1
16:45 1023 30.21 853 25.19 26.7 80.1 13 -4 24.8
16:50 1023 30.21 853 25.19 27.1 80.7 12 -4.1 24.6
16:55 1023 30.21 853 25.19 27.1 80.8 13 -3.8 25.2
17:00 1023 30.21 853 25.19 27.1 80.7 13 -3.9 25
17:05 1023 30.21 853 25.19 26.7 80.1 13 -3.9 25.1
17:10 1023 30.21 853 25.19 27 80.6 12 -4.7 23.6
17:15 1023 30.21 853 25.19 27 80.6 12 -4.5 23.8
17:20 1023 30.21 853 25.19 27.3 81.2 11 -5.2 22.7
17:25 1023 30.21 853 25.19 27 80.7 12 -4.5 23.8
17:30 1023 30.21 853 25.19 27.1 80.8 13 -3.4 25.9
17:35 1023 30.21 853 25.19 27.1 80.8 12 -4.7 23.6
17:40 1023 30.21 853 25.19 26.7 80 12 -4.6 23.7
17:45 1023 30.21 853 25.19 26.8 80.3 11 -5.5 22.2
17:50 1023 30.21 853 25.19 26.6 79.8 12 -4.9 23.3
17:55 1023 30.21 853 25.19 26.4 79.5 12 -5.1 22.8
18:00 1023 30.21 853 25.19 26.6 80 11 -5.5 22.1
18:05 1023 30.21 853 25.19 26.1 78.9 12 -5.6 22
18:10 1023 30.21 853 25.19 25.9 78.6 12 -5.4 22.2
18:15 1023 30.21 853 25.19 26.1 78.9 13 -4.7 23.5
18:20 1024 30.24 853 25.19 25.6 78.2 12 -5.4 22.2
18:25 1024 30.24 853 25.19 25.4 77.7 12 -5.3 22.4
18:30 1024 30.24 853 25.19 25.4 77.8 13 -4.9 23.1
18:35 1024 30.24 853 25.19 25.3 77.5 13 -4.4 24
18:40 1024 30.24 853 25.19 25.3 77.6 13 -4.8 23.4
18:45 1024 30.24 853 25.19 25.4 77.6 13 -4.8 23.4
18:50 1024 30.24 853 25.19 25.3 77.5 13 -5.3 22.4
18:55 1024 30.24 853 25.19 25.2 77.3 13 -5.1 22.9
19:00 1024 30.24 853 25.19 25.2 77.3 14 -4.4 24.1
19:05 1024 30.24 853 25.19 25.1 77.1 14 -4.1 24.6
19:10 1024 30.24 853 25.19 25 77.1 14 -4.5 23.9
19:15 1024 30.24 853 25.19 25 77 13 -5.2 22.6
19:20 1024 30.24 853 25.19 25 77.1 13 -5.4 22.2
19:25 1024 30.24 853 25.19 25 77 13 -5.6 22
19:30 1024 30.24 853 25.19 24.7 76.4 13 -5.6 21.9
19:35 1024 30.24 853 25.19 24.6 76.3 15 -3.4 25.9
19:40 1024 30.24 853 25.19 24.4 75.9 19 -0.6 30.9
19:45 1024 30.24 853 25.19 24.2 75.5 22 1.3 34.3
19:50 1024 30.24 853 25.19 23.6 74.4 24 2 35.6
19:55 1024 30.24 853 25.19 22.7 72.8 27 3.1 37.6
20:00 1024 30.24 853 25.19 21.8 71.2 30 3.8 38.8
20:05 1024 30.24 853 25.19 21 69.7 31 3.4 38.2
20:10 1024 30.24 853 25.19 20.4 68.7 29 1.8 35.2
20:15 1024 30.24 853 25.19 19.9 67.9 29 1.7 35
20:20 1024 30.24 853 25.19 19.3 66.8 34 3.2 37.8
20:25 1024 30.24 853 25.19 18.6 65.4 33 2.1 35.7
20:30 1024 30.24 853 25.19 18.8 65.8 28 0.1 32.3
20:35 1024 30.24 854 25.22 19.6 67.2 24 -1.4 29.4
20:40 1024 30.24 854 25.22 19.5 67.1 26 -0.5 31
20:45 1024 30.24 854 25.22 18.6 65.5 27 -0.8 30.5
20:50 1025 30.27 854 25.22 18.5 65.4 27 -0.8 30.6
20:55 1025 30.27 854 25.22 18.7 65.7 26 -1.2 29.9
21:00 1025 30.27 854 25.22 18.5 65.3 27 -0.7 30.8
21:05 1025 30.27 854 25.22 18.5 65.3 26 -1.3 29.7
21:10 1025 30.27 854 25.22 18.6 65.5 25 -1.8 28.8
21:15 1025 30.27 854 25.22 18.9 66.1 24 -2.2 28.1
21:20 1025 30.27 854 25.22 18.9 66 24 -1.8 28.7
21:25 1025 30.27 854 25.22 18.6 65.5 25 -1.9 28.6
21:30 1025 30.27 854 25.22 18.3 65 25 -2 28.4
21:35 1025 30.27 854 25.22 18.3 65 25 -2 28.4
21:40 1025 30.27 854 25.22 18.1 64.7 25 -1.9 28.5
21:45 1025 30.27 854 25.22 18.2 64.8 24 -2.3 27.8
21:50 1025 30.27 854 25.22 18.5 65.3 24 -2.5 27.5
21:55 1025 30.27 854 25.22 19.2 66.6 25 -1.3 29.6
22:00 1025 30.27 854 25.22 19.3 66.8 26 -0.4 31.2
22:05 1025 30.27 854 25.22 19 66.2 28 0.1 32.2
22:10 1025 30.27 855 25.25 18.8 65.8 29 0.4 32.8
22:15 1025 30.27 855 25.25 18.7 65.6 29 0.6 33.1
22:20 1025 30.27 855 25.25 18.6 65.5 30 0.7 33.2
22:25 1025 30.27 855 25.25 18.6 65.4 30 0.7 33.3
22:30 1025 30.27 855 25.25 18.5 65.3 30 0.6 33.1
22:35 1025 30.27 855 25.25 18.6 65.5 30 0.6 33.1
22:40 1025 30.27 855 25.25 18.5 65.3 30 0.8 33.4
22:45 1025 30.27 855 25.25 18.3 64.9 31 0.8 33.5
22:50 1025 30.27 855 25.25 18.2 64.8 31 0.8 33.5
22:55 1026 30.3 855 25.25 18.2 64.8 31 0.9 33.6
23:00 1026 30.3 855 25.25 18.1 64.6 31 0.9 33.7
23:05 1026 30.3 855 25.25 17.9 64.1 32 1.1 34
23:10 1026 30.3 855 25.25 17.7 63.8 32 0.9 33.7
23:15 1026 30.3 855 25.25 17.7 63.8 32 0.8 33.4
23:20 1026 30.3 855 25.25 17.7 63.9 32 0.8 33.4
23:25 1026 30.3 855 25.25 17.7 63.9 32 0.9 33.6
23:30 1026 30.3 855 25.25 17.7 63.9 32 0.8 33.4
23:35 1026 30.3 855 25.25 17.8 64 31 0.7 33.2
23:40 1026 30.3 855 25.25 17.8 64 31 0.7 33.3
23:45 1026 30.3 855 25.25 17.8 64.1 31 0.7 33.3
23:50 1026 30.3 855 25.25 17.8 64 31 0.7 33.2
23:55 1026 30.3 855 25.25 17.7 63.8 32 0.8 33.4
24:00 1026 30.3 855 25.25 17.6 63.6 32 0.8 33.4